Time;durP1;ratioP1;P1;durP2;ratioP2;P2;SDS_P1;SDS_P2;PMS_P1;PMS_P2;Temp;Humidity;BMP_temperature;BMP_pressure;BME280_temperature;BME280_humidity;BME280_pressure;Samples;Min_cycle;Max_cycle;Signal;HPM_P1;HPM_P2
2023/03/15 00:01:18;;;;;;;0.20;0.20;;;3.60;90.80;;;;;;5026867;28;20419;-72
2023/03/15 00:03:44;;;;;;;0.30;0.30;;;3.50;90.70;;;;;;5026805;28;20395;-72
2023/03/15 00:06:10;;;;;;;;;;;3.50;90.70;;;;;;5010948;28;20041;-71
2023/03/15 00:08:36;;;;;;;0.30;0.30;;;3.50;90.70;;;;;;5028055;28;20052;-72
2023/03/15 00:11:02;;;;;;;;;;;3.50;90.70;;;;;;5028696;28;20034;-71
2023/03/15 00:13:29;;;;;;;0.30;0.30;;;3.50;90.70;;;;;;5027990;28;19940;-72
2023/03/15 00:15:59;;;;;;;0.30;0.30;;;3.50;90.70;;;;;;5027915;28;20119;-72
2023/03/15 00:18:26;;;;;;;0.30;0.30;;;3.50;90.70;;;;;;5027926;28;20204;-72
2023/03/15 00:20:52;;;;;;;0.20;0.20;;;3.40;90.70;;;;;;5026475;28;20025;-71
2023/03/15 00:23:18;;;;;;;0.20;0.20;;;3.40;90.70;;;;;;5027895;28;20040;-71
2023/03/15 00:25:45;;;;;;;0.30;0.30;;;3.40;90.80;;;;;;5026513;28;20033;-72
2023/03/15 00:28:12;;;;;;;0.20;0.20;;;3.40;90.80;;;;;;5026716;28;20132;-72
2023/03/15 00:30:38;;;;;;;0.20;0.20;;;3.40;90.70;;;;;;5026611;28;20484;-71
2023/03/15 00:33:06;;;;;;;0.40;0.40;;;3.40;90.70;;;;;;5027717;28;20033;-71
2023/03/15 00:35:37;;;;;;;0.30;0.30;;;3.40;90.80;;;;;;5026171;28;20084;-71
2023/03/15 00:38:04;;;;;;;0.30;0.30;;;3.40;90.80;;;;;;5026516;28;20026;-71
2023/03/15 00:40:30;;;;;;;0.30;0.30;;;3.30;90.70;;;;;;5026507;28;20112;-72
2023/03/15 00:42:56;;;;;;;0.35;0.35;;;3.30;90.70;;;;;;5027604;28;20434;-71
2023/03/15 00:45:22;;;;;;;0.30;0.30;;;3.30;90.70;;;;;;5027452;28;20045;-71
2023/03/15 00:47:53;;;;;;;0.30;0.30;;;3.30;90.70;;;;;;5027561;28;20046;-71
2023/03/15 00:50:21;;;;;;;0.30;0.30;;;3.20;90.70;;;;;;5026531;28;20120;-71
2023/03/15 00:52:47;;;;;;;0.40;0.40;;;3.20;90.70;;;;;;5027498;28;20457;-72
2023/03/15 00:55:16;;;;;;;0.40;0.40;;;3.20;90.90;;;;;;5026120;28;20036;-72
2023/03/15 00:57:43;;;;;;;0.40;0.40;;;3.20;90.70;;;;;;5031143;28;20029;-71
2023/03/15 01:00:13;;;;;;;0.40;0.40;;;3.10;90.70;;;;;;5031608;28;20033;-72
2023/03/15 01:02:40;;;;;;;0.50;0.50;;;3.10;90.70;;;;;;5031244;28;20099;-71
2023/03/15 01:05:08;;;;;;;0.50;0.50;;;3.10;90.70;;;;;;5031210;28;20021;-72
2023/03/15 01:07:34;;;;;;;0.40;0.40;;;3.10;90.70;;;;;;5031442;28;20033;-71
2023/03/15 01:10:02;;;;;;;0.50;0.50;;;3.00;90.70;;;;;;5031515;28;20025;-71
2023/03/15 01:12:32;;;;;;;0.50;0.50;;;3.00;90.70;;;;;;5031546;28;20102;-71
2023/03/15 01:14:59;;;;;;;0.40;0.40;;;3.00;90.70;;;;;;5029966;28;20099;-71
2023/03/15 01:17:24;;;;;;;0.40;0.40;;;3.00;90.70;;;;;;5031342;28;20025;-71
2023/03/15 01:19:50;;;;;;;0.40;0.40;;;3.00;90.70;;;;;;5031619;28;20060;-71
2023/03/15 01:22:17;;;;;;;0.47;0.47;;;3.00;90.70;;;;;;5031255;28;20167;-71
2023/03/15 01:24:43;;;;;;;0.43;0.43;;;3.00;90.70;;;;;;5031082;28;20497;-71
2023/03/15 01:27:08;;;;;;;0.50;0.50;;;3.00;90.70;;;;;;5031106;28;20049;-71
2023/03/15 01:29:34;;;;;;;0.43;0.43;;;3.00;90.80;;;;;;5013310;28;20156;-72
2023/03/15 01:32:00;;;;;;;0.50;0.50;;;3.10;90.80;;;;;;5031000;28;20033;-71
2023/03/15 01:34:26;;;;;;;0.40;0.40;;;3.10;90.80;;;;;;5029937;28;20044;-72
2023/03/15 01:36:52;;;;;;;0.50;0.50;;;3.10;90.80;;;;;;5031023;28;20037;-72
2023/03/15 01:39:18;;;;;;;;;;;3.20;90.80;;;;;;5031360;28;20025;-71
2023/03/15 01:41:47;;;;;;;0.40;0.40;;;3.20;90.80;;;;;;5031185;28;19909;-71
2023/03/15 01:44:17;;;;;;;0.40;0.40;;;3.30;90.80;;;;;;5013079;28;20035;-72
2023/03/15 01:46:43;;;;;;;0.40;0.40;;;3.30;90.70;;;;;;5029426;28;20500;-71
2023/03/15 01:49:16;;;;;;;0.50;0.50;;;3.30;90.70;;;;;;5030693;28;20164;-71
2023/03/15 01:51:48;;;;;;;0.45;0.45;;;3.30;90.70;;;;;;5030628;28;20030;-71
2023/03/15 01:54:40;;;;;;;0.50;0.50;;;3.30;90.80;;;;;;5029197;28;20034;-72
2023/03/15 01:57:21;;;;;;;0.40;0.40;;;3.40;90.80;;;;;;5027450;28;20124;-71
2023/03/15 02:00:00;;;;;;;0.40;0.40;;;3.40;90.80;;;;;;5030413;28;20025;-71
2023/03/15 02:02:27;;;;;;;0.47;0.47;;;3.40;90.80;;;;;;5030474;28;20038;-72
2023/03/15 02:05:10;;;;;;;0.55;0.55;;;3.50;90.80;;;;;;5028872;28;20046;-71
2023/03/15 02:07:38;;;;;;;0.40;0.40;;;3.50;90.80;;;;;;5029915;28;20047;-71
2023/03/15 02:10:08;;;;;;;0.40;0.40;;;3.50;90.80;;;;;;5030261;28;20017;-71
2023/03/15 02:12:45;;;;;;;0.40;0.40;;;3.60;90.80;;;;;;5030344;28;20453;-71
2023/03/15 02:15:12;;;;;;;0.50;0.50;;;3.50;90.70;;;;;;5030184;28;20025;-71
2023/03/15 02:17:42;;;;;;;0.57;0.57;;;3.60;90.80;;;;;;5030080;28;20393;-71
2023/03/15 02:20:35;;;;;;;0.50;0.50;;;3.50;90.80;;;;;;5028859;28;20200;-71
2023/03/15 02:23:13;;;;;;;0.57;0.57;;;3.50;90.80;;;;;;5028674;28;20051;-71
2023/03/15 02:26:09;;;;;;;0.52;0.52;;;3.60;90.80;;;;;;5029839;28;20033;-72
2023/03/15 02:28:36;;;;;;;0.60;0.60;;;3.60;90.80;;;;;;5029933;28;20022;-72
2023/03/15 02:31:02;;;;;;;;;;;3.60;90.80;;;;;;5030802;28;20394;-71
2023/03/15 02:33:29;;;;;;;0.50;0.50;;;3.70;90.80;;;;;;5029846;28;20011;-71
2023/03/15 02:36:05;;;;;;;0.50;0.50;;;3.70;90.70;;;;;;5028745;28;20114;-72
2023/03/15 02:38:30;;;;;;;0.50;0.50;;;3.70;90.70;;;;;;5029875;28;20049;-72
2023/03/15 02:40:57;;;;;;;0.60;0.60;;;3.70;90.70;;;;;;5029835;28;20041;-71
2023/03/15 02:43:27;;;;;;;0.60;0.60;;;3.70;90.80;;;;;;5029498;28;20025;-72
2023/03/15 02:45:53;;;;;;;0.70;0.70;;;3.70;90.80;;;;;;5029414;28;20029;-71
2023/03/15 02:48:19;;;;;;;0.63;0.63;;;3.60;90.80;;;;;;5028351;28;20499;-72
2023/03/15 02:50:45;;;;;;;0.60;0.60;;;3.60;90.80;;;;;;5028171;28;20577;-72
2023/03/15 02:53:11;;;;;;;0.70;0.70;;;3.60;90.90;;;;;;5029486;28;20053;-72
2023/03/15 02:55:37;;;;;;;0.68;0.68;;;3.50;90.90;;;;;;5029737;28;20038;-71
2023/03/15 02:58:03;;;;;;;0.90;0.90;;;3.40;90.90;;;;;;4995447;28;20489;-72
2023/03/15 03:00:29;;;;;;;0.80;0.80;;;3.40;91.00;;;;;;5029368;28;20047;-72
2023/03/15 03:02:55;;;;;;;0.70;0.70;;;3.30;91.00;;;;;;5029282;28;20045;-72
2023/03/15 03:05:21;;;;;;;0.88;0.88;;;3.20;91.00;;;;;;5029171;28;20370;-71
2023/03/15 03:07:49;;;;;;;1.10;1.10;;;3.10;91.10;;;;;;5027951;28;20033;-71
2023/03/15 03:10:17;;;;;;;1.00;1.00;;;3.10;91.10;;;;;;5011713;28;20080;-71
2023/03/15 03:12:43;;;;;;;0.90;0.90;;;3.10;91.10;;;;;;5027906;28;20541;-72
2023/03/15 03:15:10;;;;;;;0.90;0.90;;;3.00;91.20;;;;;;5029115;28;20033;-71
2023/03/15 03:17:36;;;;;;;1.00;1.00;;;3.10;91.30;;;;;;5029155;28;20457;-71
2023/03/15 03:20:10;;;;;;;1.10;1.10;;;3.10;91.20;;;;;;5028138;28;20033;-71
2023/03/15 03:22:36;;;;;;;0.90;0.90;;;3.10;91.10;;;;;;5029054;28;20026;-72
2023/03/15 03:25:02;;;;;;;;;;;3.20;91.20;;;;;;5011489;28;20504;-71
2023/03/15 03:27:28;;;;;;;1.10;1.10;;;3.20;91.20;;;;;;5027572;28;19918;-72
2023/03/15 03:29:54;;;;;;;1.00;1.00;;;3.20;91.10;;;;;;5029307;28;20036;-72
2023/03/15 03:32:20;;;;;;;1.00;1.00;;;3.20;91.10;;;;;;5028885;28;20033;-72
2023/03/15 03:34:47;;;;;;;0.80;0.80;;;3.10;91.20;;;;;;5027534;28;20037;-72
2023/03/15 03:37:17;;;;;;;0.80;0.80;;;3.10;91.20;;;;;;5027640;28;20036;-72
2023/03/15 03:39:43;;;;;;;1.00;1.00;;;3.10;91.20;;;;;;5028685;28;20034;-71
2023/03/15 03:42:09;;;;;;;0.90;0.90;;;3.20;91.20;;;;;;5028583;28;20034;-72
2023/03/15 03:44:35;;;;;;;0.80;0.80;;;3.20;91.30;;;;;;5028453;28;20029;-71
2023/03/15 03:47:01;;;;;;;0.80;0.80;;;3.30;91.20;;;;;;5028544;28;20017;-72
2023/03/15 03:49:26;;;;;;;0.82;0.82;;;3.30;91.20;;;;;;5011141;28;20095;-72
2023/03/15 03:51:52;;;;;;;0.85;0.85;;;3.40;91.10;;;;;;5028905;28;20393;-76
2023/03/15 03:54:20;;;;;;;0.90;0.90;;;3.40;91.10;;;;;;5029482;28;20038;-76
2023/03/15 03:56:46;;;;;;;0.82;0.82;;;3.40;91.10;;;;;;5029490;28;20034;-76
2023/03/15 03:59:12;;;;;;;0.90;0.90;;;3.30;91.00;;;;;;5029509;28;20032;-76
2023/03/15 04:01:38;;;;;;;1.08;1.08;;;3.20;91.10;;;;;;5029377;28;20049;-76
2023/03/15 04:04:04;;;;;;;0.90;0.90;;;3.20;91.10;;;;;;5027858;28;20486;-76
2023/03/15 04:06:30;;;;;;;1.05;1.05;;;3.10;91.10;;;;;;5029234;28;20120;-76
2023/03/15 04:08:57;;;;;;;1.02;1.02;;;3.00;91.10;;;;;;5027922;28;20049;-76
2023/03/15 04:11:25;;;;;;;0.90;0.90;;;3.00;91.20;;;;;;5028916;28;20497;-76
2023/03/15 04:13:52;;;;;;;0.90;0.90;;;3.00;91.30;;;;;;5027859;28;20408;-76
2023/03/15 04:16:19;;;;;;;0.90;0.90;;;3.00;91.30;;;;;;5029001;28;20083;-76
2023/03/15 04:18:45;;;;;;;0.80;0.80;;;3.00;91.30;;;;;;5027709;28;20036;-76
2023/03/15 04:21:12;;;;;;;0.80;0.80;;;3.10;91.40;;;;;;5028998;28;20412;-76
2023/03/15 04:23:38;;;;;;;0.80;0.80;;;3.20;91.30;;;;;;5028780;28;20083;-77
2023/03/15 04:26:04;;;;;;;0.90;0.90;;;3.20;91.30;;;;;;5027681;28;20470;-76
2023/03/15 04:28:30;;;;;;;;;;;3.30;91.30;;;;;;5029143;28;20493;-76
2023/03/15 04:30:57;;;;;;;0.80;0.80;;;3.40;91.30;;;;;;5028513;28;19909;-76
2023/03/15 04:33:26;;;;;;;0.80;0.80;;;3.50;91.30;;;;;;5028792;28;20018;-76
2023/03/15 04:35:52;;;;;;;0.88;0.88;;;3.50;91.30;;;;;;5028328;28;20072;-76
2023/03/15 04:38:18;;;;;;;0.90;0.90;;;3.60;91.30;;;;;;5028732;28;20026;-76
2023/03/15 04:40:44;;;;;;;;;;;3.70;91.20;;;;;;5029192;28;20034;-76
2023/03/15 04:43:10;;;;;;;0.80;0.80;;;3.70;91.20;;;;;;5028682;28;19909;-76
2023/03/15 04:45:35;;;;;;;0.80;0.80;;;3.80;91.20;;;;;;5027050;28;20505;-76
2023/03/15 04:48:02;;;;;;;0.80;0.80;;;3.90;91.10;;;;;;5010816;28;20120;-76
2023/03/15 04:50:28;;;;;;;;;;;3.90;91.10;;;;;;5028868;28;20017;-76
2023/03/15 04:52:54;;;;;;;0.70;0.70;;;3.90;91.10;;;;;;5027239;28;20328;-76
2023/03/15 04:55:20;;;;;;;0.70;0.70;;;3.90;91.10;;;;;;5028659;28;20030;-76
2023/03/15 04:57:45;;;;;;;0.70;0.70;;;3.90;91.10;;;;;;5028673;28;20037;-77
2023/03/15 05:00:12;;;;;;;0.80;0.80;;;3.90;91.10;;;;;;5027127;28;20157;-77
2023/03/15 05:02:40;;;;;;;0.80;0.80;;;3.90;91.20;;;;;;5028469;28;20053;-76
2023/03/15 05:05:11;;;;;;;0.80;0.80;;;3.90;91.20;;;;;;5026625;28;20041;-76
2023/03/15 05:07:38;;;;;;;0.90;0.90;;;3.90;91.20;;;;;;5027982;28;20568;-76
2023/03/15 05:10:04;;;;;;;;;;;3.90;91.20;;;;;;5027406;28;20386;-76
2023/03/15 05:12:31;;;;;;;0.80;0.80;;;3.90;91.20;;;;;;5027028;28;19912;-76
2023/03/15 05:14:56;;;;;;;0.75;0.75;;;3.90;91.20;;;;;;5026983;28;20033;-76
2023/03/15 05:17:22;;;;;;;0.85;0.85;;;3.90;91.20;;;;;;5010565;28;20425;-76
2023/03/15 05:19:48;;;;;;;0.90;0.90;;;3.80;91.20;;;;;;5026967;28;20048;-76
2023/03/15 05:22:14;;;;;;;0.90;0.90;;;3.80;91.30;;;;;;5028038;28;20566;-76
2023/03/15 05:24:40;;;;;;;0.95;0.95;;;3.80;91.30;;;;;;5028099;28;20128;-77
2023/03/15 05:27:05;;;;;;;0.90;0.90;;;3.90;91.30;;;;;;5026871;28;20119;-76
2023/03/15 05:29:31;;;;;;;0.80;0.80;;;3.90;91.20;;;;;;5028327;28;20088;-76
2023/03/15 05:31:57;;;;;;;0.85;0.85;;;3.90;91.30;;;;;;5028138;28;20040;-76
2023/03/15 05:34:23;;;;;;;0.80;0.80;;;4.00;91.30;;;;;;5028062;28;20036;-76
2023/03/15 05:36:51;;;;;;;0.77;0.77;;;3.90;91.20;;;;;;5027937;28;20072;-76
2023/03/15 05:39:18;;;;;;;0.80;0.80;;;3.90;91.20;;;;;;5028281;28;20080;-76
2023/03/15 05:41:44;;;;;;;0.75;0.75;;;3.90;91.30;;;;;;5028480;28;20470;-76
2023/03/15 05:44:10;;;;;;;0.93;0.93;;;3.90;91.40;;;;;;5030337;28;20072;-76
2023/03/15 05:46:36;;;;;;;0.80;0.80;;;3.90;91.40;;;;;;5030506;28;20125;-76
2023/03/15 05:49:03;;;;;;;0.80;0.80;;;3.80;91.30;;;;;;5031658;28;20097;-77
2023/03/15 05:51:28;;;;;;;0.70;0.70;;;3.90;91.40;;;;;;5030217;28;20025;-76
2023/03/15 05:53:54;;;;;;;0.80;0.80;;;3.90;91.40;;;;;;5031516;28;20104;-76
2023/03/15 05:56:19;;;;;;;0.70;0.70;;;3.90;91.60;;;;;;5030258;28;20092;-76
2023/03/15 05:58:45;;;;;;;1.00;1.00;;;4.00;91.40;;;;;;5031293;28;20426;-76
2023/03/15 06:01:11;;;;;;;0.80;0.80;;;4.00;91.30;;;;;;5031059;28;20056;-76
2023/03/15 06:03:37;;;;;;;0.80;0.80;;;4.00;91.30;;;;;;5030239;28;20038;-77
2023/03/15 06:06:03;;;;;;;0.80;0.80;;;4.00;91.60;;;;;;5031101;28;20042;-76
2023/03/15 06:08:29;;;;;;;0.80;0.80;;;4.00;91.40;;;;;;5031232;28;20281;-76
2023/03/15 06:10:55;;;;;;;0.90;0.90;;;4.10;91.50;;;;;;5031128;28;20033;-76
2023/03/15 06:13:20;;;;;;;0.77;0.77;;;4.10;91.40;;;;;;5031215;28;20091;-76
2023/03/15 06:15:47;;;;;;;0.80;0.80;;;4.20;91.40;;;;;;5030919;28;20047;-76
2023/03/15 06:18:13;;;;;;;0.75;0.75;;;4.20;91.30;;;;;;5031315;28;20032;-76
2023/03/15 06:20:41;;;;;;;0.68;0.68;;;4.20;91.20;;;;;;5030879;28;20026;-76
2023/03/15 06:23:07;;;;;;;0.70;0.70;;;4.20;91.30;;;;;;5031098;28;20034;-77
2023/03/15 06:25:33;;;;;;;0.70;0.70;;;4.10;91.30;;;;;;5030830;28;20508;-76
2023/03/15 06:28:00;;;;;;;1.25;1.00;;;4.10;91.40;;;;;;5030904;28;20105;-76
2023/03/15 06:30:25;;;;;;;;;;;4.20;91.40;;;;;;5031555;28;20032;-76
2023/03/15 06:32:51;;;;;;;0.70;0.70;;;4.20;91.40;;;;;;5029317;28;20284;-77
2023/03/15 06:35:17;;;;;;;0.90;0.90;;;4.30;91.30;;;;;;5030638;28;20423;-77
2023/03/15 06:37:43;;;;;;;0.80;0.80;;;4.40;91.30;;;;;;5030551;28;20034;-75
2023/03/15 06:40:10;;;;;;;0.80;0.80;;;4.40;91.30;;;;;;5030698;28;20096;-74
2023/03/15 06:42:37;;;;;;;0.77;0.77;;;4.40;91.20;;;;;;5030852;28;20042;-75
2023/03/15 06:45:03;;;;;;;0.90;0.90;;;4.40;91.20;;;;;;5030706;28;20057;-75
2023/03/15 06:47:29;;;;;;;0.90;0.90;;;4.50;91.20;;;;;;5030563;28;20021;-75
2023/03/15 06:49:55;;;;;;;0.90;0.90;;;4.40;91.20;;;;;;5030580;28;20433;-75
2023/03/15 06:52:20;;;;;;;1.00;1.00;;;4.40;91.20;;;;;;5030584;28;20112;-75
2023/03/15 06:54:46;;;;;;;0.95;0.95;;;4.50;91.30;;;;;;5027860;28;20076;-75
2023/03/15 06:57:12;;;;;;;0.90;0.90;;;4.50;91.30;;;;;;5029056;28;20030;-75
2023/03/15 06:59:37;;;;;;;0.80;0.80;;;4.50;91.40;;;;;;5028507;28;20026;-74
2023/03/15 07:02:03;;;;;;;0.73;0.73;;;4.60;91.40;;;;;;5029923;28;20477;-75
2023/03/15 07:04:30;;;;;;;0.70;0.70;;;4.60;91.40;;;;;;5029898;28;20113;-77
2023/03/15 07:06:55;;;;;;;0.70;0.70;;;4.60;91.40;;;;;;5029863;28;20033;-71
2023/03/15 07:09:21;;;;;;;0.60;0.60;;;4.70;91.50;;;;;;5029856;28;20033;-77
2023/03/15 07:11:47;;;;;;;0.70;0.70;;;4.80;91.50;;;;;;5028987;28;20040;-74
2023/03/15 07:14:13;;;;;;;0.60;0.60;;;4.90;91.50;;;;;;5029680;28;20021;-74
2023/03/15 07:16:38;;;;;;;0.70;0.70;;;5.00;91.50;;;;;;5029201;28;20481;-77
2023/03/15 07:19:04;;;;;;;0.80;0.80;;;5.00;91.50;;;;;;5029878;28;20033;-77
2023/03/15 07:21:30;;;;;;;0.70;0.70;;;5.20;91.50;;;;;;5029799;28;20034;-75
2023/03/15 07:23:56;;;;;;;0.80;0.80;;;5.30;91.50;;;;;;5029659;28;20036;-76
2023/03/15 07:26:21;;;;;;;0.80;0.80;;;5.40;91.40;;;;;;5029479;28;20030;-74
2023/03/15 07:28:47;;;;;;;0.80;0.80;;;5.50;91.40;;;;;;5029109;28;20480;-74
2023/03/15 07:31:13;;;;;;;1.00;1.00;;;5.50;91.40;;;;;;5028099;28;20122;-75
2023/03/15 07:33:39;;;;;;;0.90;0.90;;;5.60;91.40;;;;;;5028044;28;20112;-76
2023/03/15 07:36:06;;;;;;;0.90;0.90;;;5.60;91.50;;;;;;5029705;28;20042;-76
2023/03/15 07:38:33;;;;;;;0.90;0.90;;;5.70;91.50;;;;;;5028988;28;20477;-77
2023/03/15 07:41:02;;;;;;;0.80;0.80;;;5.80;91.50;;;;;;5029566;28;20026;-76
2023/03/15 07:43:28;;;;;;;0.90;0.90;;;5.80;91.50;;;;;;5029286;28;20083;-77
2023/03/15 07:45:54;;;;;;;0.90;0.90;;;5.80;91.50;;;;;;5029178;28;20091;-77
2023/03/15 07:48:19;;;;;;;0.90;0.90;;;5.90;91.40;;;;;;5028803;28;20030;-77
2023/03/15 07:50:45;;;;;;;0.90;0.90;;;5.90;91.40;;;;;;5029219;28;20026;-77
2023/03/15 07:53:11;;;;;;;0.90;0.90;;;5.90;91.40;;;;;;5029124;28;20030;-77
2023/03/15 07:55:36;;;;;;;1.00;1.00;;;6.00;91.40;;;;;;5028874;28;20054;-77
2023/03/15 07:58:02;;;;;;;1.02;1.02;;;5.90;91.40;;;;;;5028797;28;20034;-77
2023/03/15 08:00:28;;;;;;;0.90;0.90;;;5.90;91.40;;;;;;5028676;28;20034;-77
2023/03/15 08:02:54;;;;;;;1.10;1.10;;;6.00;91.40;;;;;;5028668;28;20049;-77
2023/03/15 08:05:20;;;;;;;1.10;1.10;;;6.00;91.50;;;;;;5028050;28;20029;-77
2023/03/15 08:07:46;;;;;;;;;;;6.00;91.50;;;;;;5028979;28;20032;-77
2023/03/15 08:10:14;;;;;;;1.15;1.10;;;6.10;91.50;;;;;;5028588;28;19995;-77
2023/03/15 08:12:41;;;;;;;1.10;1.10;;;6.10;91.40;;;;;;5027504;28;20034;-77
2023/03/15 08:15:09;;;;;;;1.10;1.10;;;6.20;91.50;;;;;;5028621;28;20080;-77
2023/03/15 08:17:35;;;;;;;1.30;1.20;;;6.20;91.50;;;;;;5028588;28;20033;-77
2023/03/15 08:20:01;;;;;;;1.30;1.20;;;6.20;91.50;;;;;;5028483;28;20037;-77
2023/03/15 08:22:29;;;;;;;1.13;1.10;;;6.20;91.60;;;;;;5028071;28;20025;-77
2023/03/15 08:24:56;;;;;;;1.00;1.00;;;6.30;91.60;;;;;;5029044;28;20029;-77
2023/03/15 08:27:23;;;;;;;1.42;1.33;;;6.30;91.60;;;;;;5028650;28;20025;-77
2023/03/15 08:29:48;;;;;;;1.40;1.30;;;6.30;91.60;;;;;;5028370;28;20037;-77
2023/03/15 08:32:16;;;;;;;1.60;1.50;;;6.30;91.50;;;;;;5027242;28;20026;-77
2023/03/15 08:34:42;;;;;;;1.30;1.20;;;6.40;91.60;;;;;;5028157;28;20080;-77
2023/03/15 08:37:09;;;;;;;1.50;1.40;;;6.40;91.60;;;;;;5027021;28;20030;-76
2023/03/15 08:39:35;;;;;;;1.40;1.30;;;6.40;91.50;;;;;;5027005;28;20041;-77
2023/03/15 08:42:01;;;;;;;1.42;1.33;;;6.40;91.50;;;;;;5026900;28;20025;-77
2023/03/15 08:44:26;;;;;;;1.80;1.70;;;6.40;91.50;;;;;;5027065;28;20236;-77
2023/03/15 08:46:52;;;;;;;1.90;1.80;;;6.30;91.50;;;;;;5026506;28;20034;-76
2023/03/15 08:49:18;;;;;;;2.40;2.20;;;6.30;91.50;;;;;;5027827;28;20033;-77
2023/03/15 08:51:43;;;;;;;4.20;3.90;;;6.20;91.50;;;;;;5026625;28;20446;-77
2023/03/15 08:54:09;;;;;;;4.35;4.05;;;6.20;91.60;;;;;;5026289;28;20167;-77
2023/03/15 08:56:35;;;;;;;5.45;5.15;;;6.20;91.60;;;;;;5009650;28;20033;-77
2023/03/15 08:59:00;;;;;;;4.10;3.80;;;6.20;91.70;;;;;;5027660;28;20057;-77
2023/03/15 09:01:29;;;;;;;5.18;4.88;;;6.20;91.70;;;;;;5027356;28;20057;-77
2023/03/15 09:03:54;;;;;;;4.60;4.30;;;6.20;91.70;;;;;;5026945;28;20039;-77
2023/03/15 09:06:20;;;;;;;3.78;3.47;;;6.20;91.80;;;;;;5027547;28;20036;-76
2023/03/15 09:08:46;;;;;;;3.65;3.35;;;6.30;91.80;;;;;;5029202;28;20112;-77
2023/03/15 09:11:12;;;;;;;8.77;8.38;;;6.30;91.80;;;;;;5039967;28;20053;-75
2023/03/15 09:13:41;;;;;;;17.58;16.88;;;6.30;91.80;;;;;;5038762;28;20033;-80
2023/03/15 09:16:07;;;;;;;21.58;20.67;;;6.40;91.80;;;;;;5047796;28;20099;-77
2023/03/15 09:18:32;;;;;;;25.90;24.90;;;6.40;91.80;;;;;;5050987;28;20032;-76
2023/03/15 09:20:58;;;;;;;26.25;25.25;;;6.40;91.80;;;;;;5052052;28;20033;-79
2023/03/15 09:23:24;;;;;;;27.52;26.42;;;6.50;91.80;;;;;;5053963;28;20037;-76
2023/03/15 09:25:50;;;;;;;31.80;30.60;;;6.50;91.80;;;;;;5053158;28;20044;-76
2023/03/15 09:28:15;;;;;;;29.70;28.60;;;6.60;91.80;;;;;;5051644;28;20079;-75
2023/03/15 09:30:41;;;;;;;35.05;33.75;;;6.60;91.80;;;;;;5043796;28;20073;-76
2023/03/15 09:33:08;;;;;;;46.03;44.33;;;6.70;91.80;;;;;;5040681;28;20112;-75
2023/03/15 09:35:33;;;;;;;;;;;6.70;91.80;;;;;;5043349;28;20044;-71
2023/03/15 09:37:59;;;;;;;72.20;69.50;;;6.80;91.80;;;;;;5031854;28;19909;-70
2023/03/15 09:40:37;;;;;;;72.75;70.05;;;6.80;91.70;;;;;;5032128;28;20057;-73
2023/03/15 09:43:09;;;;;;;72.63;69.93;;;6.90;91.80;;;;;;5032164;28;20029;-76
2023/03/15 09:45:49;;;;;;;77.72;74.88;;;6.90;91.80;;;;;;5031740;28;20021;-73
2023/03/15 09:48:18;;;;;;;76.18;73.38;;;6.90;91.80;;;;;;5031271;28;20472;-73
2023/03/15 09:51:00;;;;;;;77.20;74.35;;;6.90;91.80;;;;;;5031249;28;20092;-74
2023/03/15 09:53:59;;;;;;;78.70;75.80;;;7.00;91.80;;;;;;5030159;28;20428;-74
2023/03/15 09:56:25;;;;;;;78.00;75.10;;;7.00;91.80;;;;;;5031173;28;20036;-73
2023/03/15 09:58:56;;;;;;;78.45;75.55;;;7.10;91.80;;;;;;5031180;28;20029;-74
2023/03/15 10:01:28;;;;;;;79.43;76.43;;;7.10;91.80;;;;;;5029514;28;20061;-73
2023/03/15 10:03:54;;;;;;;82.53;79.43;;;7.10;91.80;;;;;;5031590;28;20065;-73
2023/03/15 10:06:25;;;;;;;83.43;80.32;;;7.20;91.90;;;;;;5031227;28;20631;-72
2023/03/15 10:08:57;;;;;;;81.97;78.93;;;7.20;91.80;;;;;;5030964;28;20032;-73
2023/03/15 10:11:33;;;;;;;80.03;77.03;;;7.30;91.80;;;;;;5030971;28;20036;-73
2023/03/15 10:14:29;;;;;;;82.60;79.50;;;7.30;91.90;;;;;;5030706;28;20049;-74
2023/03/15 10:16:55;;;;;;;83.53;80.43;;;7.40;91.90;;;;;;5030604;28;20716;-73
2023/03/15 10:19:47;;;;;;;83.88;80.72;;;7.40;91.90;;;;;;5029518;28;20033;-73
2023/03/15 10:22:13;;;;;;;82.45;79.35;;;7.50;91.90;;;;;;5029654;28;20516;-75
2023/03/15 10:24:58;;;;;;;82.22;79.13;;;7.50;91.90;;;;;;5029658;28;20029;-72
2023/03/15 10:27:26;;;;;;;82.75;79.65;;;7.50;91.90;;;;;;5030584;28;20040;-73
2023/03/15 10:29:55;;;;;;;84.90;81.70;;;7.50;91.90;;;;;;5030817;28;20021;-73
2023/03/15 10:32:33;;;;;;;82.55;79.45;;;7.60;92.00;;;;;;5033557;28;20124;-72
2023/03/15 10:35:00;;;;;;;81.30;78.30;;;7.60;91.90;;;;;;5049819;28;20017;-72
2023/03/15 10:37:26;;;;;;;80.32;77.32;;;7.70;91.90;;;;;;5050371;28;20032;-72
2023/03/15 10:39:57;;;;;;;82.40;79.30;;;7.70;91.90;;;;;;5048784;28;20021;-72
2023/03/15 10:42:32;;;;;;;80.75;77.75;;;7.70;92.00;;;;;;5049744;28;20528;-71
2023/03/15 10:45:10;;;;;;;82.65;79.55;;;7.80;92.10;;;;;;5049498;28;20033;-71
2023/03/15 10:47:42;;;;;;;80.72;77.68;;;7.90;92.10;;;;;;5048416;28;20036;-72
2023/03/15 10:50:15;;;;;;;82.70;79.57;;;8.00;92.10;;;;;;5050762;28;20017;-73
2023/03/15 10:52:44;;;;;;;81.70;78.60;;;8.10;92.20;;;;;;5048888;28;20083;-73
2023/03/15 10:55:20;;;;;;;82.40;79.30;;;8.20;92.20;;;;;;5049554;28;20029;-73
2023/03/15 10:58:00;;;;;;;80.68;77.65;;;8.30;92.10;;;;;;5048711;28;20095;-73
2023/03/15 11:00:35;;;;;;;82.03;78.93;;;8.40;92.00;;;;;;5049968;28;20033;-73
2023/03/15 11:03:19;;;;;;;80.05;77.05;;;8.40;92.10;;;;;;5049174;28;20037;-76
2023/03/15 11:05:48;;;;;;;79.00;76.00;;;8.50;92.20;;;;;;5050379;28;20049;-74
2023/03/15 11:08:39;;;;;;;79.70;76.70;;;8.50;92.10;;;;;;5050265;28;20025;-80
2023/03/15 11:11:06;;;;;;;77.55;74.65;;;8.60;92.20;;;;;;5036369;28;20052;-76
2023/03/15 11:13:34;;;;;;;77.28;74.38;;;8.70;92.20;;;;;;5049890;28;20024;-74
2023/03/15 11:16:02;;;;;;;78.95;76.03;;;8.80;92.20;;;;;;5049636;28;20025;-73
2023/03/15 11:18:41;;;;;;;76.53;73.68;;;8.80;92.20;;;;;;5049912;28;20025;-73
2023/03/15 11:21:10;;;;;;;74.65;71.85;;;8.90;92.20;;;;;;5048194;28;20479;-72
2023/03/15 11:23:41;;;;;;;74.22;71.43;;;8.90;92.20;;;;;;5049294;28;20020;-73
2023/03/15 11:26:16;;;;;;;73.93;71.20;;;8.90;92.20;;;;;;5049338;28;20358;-77
2023/03/15 11:28:58;;;;;;;73.10;70.40;;;8.90;92.20;;;;;;5049461;28;20024;-73
2023/03/15 11:31:27;;;;;;;73.20;70.40;;;8.80;92.20;;;;;;5049153;28;20480;-75
2023/03/15 11:34:02;;;;;;;73.70;70.93;;;8.90;92.30;;;;;;5049177;28;20071;-75
2023/03/15 11:36:32;;;;;;;77.18;74.28;;;8.90;92.20;;;;;;5049249;28;20112;-72
2023/03/15 11:39:01;;;;;;;72.43;69.72;;;9.00;92.30;;;;;;5049032;28;20020;-71
2023/03/15 11:41:40;;;;;;;76.13;73.22;;;9.00;92.20;;;;;;5048645;28;20021;-75
2023/03/15 11:44:31;;;;;;;76.32;73.43;;;9.00;92.30;;;;;;5049142;28;20033;-72
2023/03/15 11:47:04;;;;;;;77.68;74.78;;;9.10;92.30;;;;;;5040197;28;20033;-74
2023/03/15 11:49:49;;;;;;;77.25;74.35;;;9.00;92.40;;;;;;5037565;28;20033;-74
2023/03/15 11:52:16;;;;;;;75.00;72.20;;;9.10;92.40;;;;;;5039684;28;20033;-77
2023/03/15 11:54:44;;;;;;;74.20;71.40;;;9.10;92.40;;;;;;5040683;28;20032;-72
2023/03/15 11:57:29;;;;;;;71.35;68.65;;;9.20;92.40;;;;;;5040360;28;20030;-73
2023/03/15 11:59:56;;;;;;;71.65;68.95;;;9.20;92.40;;;;;;5037036;28;20363;-74
2023/03/15 12:02:21;;;;;;;69.68;67.05;;;9.10;92.30;;;;;;5040487;28;20458;-75
2023/03/15 12:04:55;;;;;;;69.38;66.78;;;9.10;92.40;;;;;;5036022;28;20021;-75
2023/03/15 12:07:23;;;;;;;71.97;69.28;;;9.10;92.50;;;;;;5035870;28;20034;-75
2023/03/15 12:09:55;;;;;;;72.78;69.97;;;9.10;92.40;;;;;;5035541;28;20021;-75
2023/03/15 12:12:23;;;;;;;73.70;70.90;;;9.10;92.40;;;;;;5032853;28;20163;-74
2023/03/15 12:15:17;;;;;;;80.05;77.05;;;9.00;92.40;;;;;;5036286;28;20022;-74
2023/03/15 12:17:50;;;;;;;74.57;71.78;;;9.10;92.50;;;;;;5033666;28;20052;-73
2023/03/15 12:20:18;;;;;;;71.70;69.00;;;9.10;92.40;;;;;;5038106;28;20110;-74
2023/03/15 12:23:04;;;;;;;70.60;67.93;;;9.00;92.40;;;;;;5034985;28;20081;-74
2023/03/15 12:25:34;;;;;;;66.57;64.07;;;9.10;92.50;;;;;;5035630;28;20115;-74
2023/03/15 12:28:07;;;;;;;66.88;64.38;;;9.20;92.50;;;;;;5036652;28;20589;-73
2023/03/15 12:30:39;;;;;;;64.65;62.25;;;9.20;92.50;;;;;;5039111;28;20026;-76
2023/03/15 12:33:16;;;;;;;61.95;59.65;;;9.30;92.50;;;;;;5035730;28;20079;-74
2023/03/15 12:35:43;;;;;;;65.60;63.20;;;9.30;92.50;;;;;;5035324;28;20048;-74
2023/03/15 12:38:14;;;;;;;;;;;9.30;92.50;;;;;;5036581;28;20041;-75
2023/03/15 12:40:55;;;;;;;64.57;62.17;;;9.40;92.50;;;;;;5039860;28;19905;-73
2023/03/15 12:43:40;;;;;;;64.18;61.78;;;9.50;92.50;;;;;;5036996;28;20466;-74
2023/03/15 12:46:06;;;;;;;61.10;58.80;;;9.60;92.50;;;;;;5039268;28;20033;-75
2023/03/15 12:48:32;;;;;;;61.60;58.65;;;9.60;92.50;;;;;;5038187;28;20026;-74
2023/03/15 12:51:02;;;;;;;58.28;56.08;;;9.70;92.50;;;;;;5034425;28;20033;-74
2023/03/15 12:53:34;;;;;;;60.28;57.97;;;9.70;92.50;;;;;;5038963;28;20025;-74
2023/03/15 12:56:39;;;;;;;59.95;57.75;;;9.80;92.50;;;;;;5037105;28;20466;-74
2023/03/15 12:59:41;;;;;;;58.15;55.95;;;9.90;92.60;;;;;;5038985;28;20486;-74
2023/03/15 13:02:27;;;;;;;55.88;53.78;;;10.00;92.60;;;;;;5035828;28;20129;-75
2023/03/15 13:05:08;;;;;;;56.92;54.83;;;10.10;92.60;;;;;;5041700;28;20174;-73